Time;durP1;ratioP1;P1;durP2;ratioP2;P2;SDS_P1;SDS_P2;PMS_P1;PMS_P2;Temp;Humidity;BMP_temperature;BMP_pressure;BME280_temperature;BME280_humidity;BME280_pressure;Samples;Min_cycle;Max_cycle;Signal;HPM_P1;HPM_P2
2023/11/16 00:34:01;;;;;;;;;9.00;8.00;;;;;14.52;83.03;101135.53;6176567;22;46904;-84
2023/11/16 00:36:27;;;;;;;;;15.00;12.67;;;;;14.21;83.41;101126.44;6223769;22;47158;-85
2023/11/16 00:38:53;;;;;;;;;10.33;10.33;;;;;14.12;83.37;101111.25;6212554;22;44958;-85
2023/11/16 00:41:19;;;;;;;;;11.67;10.67;;;;;14.14;83.29;101100.56;6239706;22;44745;-84
2023/11/16 00:43:45;;;;;;;;;11.00;9.00;;;;;14.48;83.59;101109.66;6213352;22;45303;-85
2023/11/16 00:46:16;;;;;;;;;11.00;9.33;;;;;14.35;83.21;101110.47;6213083;22;47052;-85
2023/11/16 00:48:43;;;;;;;;;15.00;12.67;;;;;14.34;83.36;101108.66;6239283;22;44662;-85
2023/11/16 00:51:09;;;;;;;;;10.67;9.33;;;;;14.30;83.32;101106.88;6238200;22;44792;-84
2023/11/16 00:53:40;;;;;;;;;13.00;11.00;;;;;14.26;83.66;101089.94;6212926;22;44835;-84
2023/11/16 00:56:08;;;;;;;;;13.33;11.33;;;;;14.39;83.69;101105.13;6212635;22;47273;-84
2023/11/16 00:58:33;;;;;;;;;16.00;14.67;;;;;14.23;83.56;101105.06;6212641;22;44709;-84
2023/11/16 01:00:59;;;;;;;;;10.67;10.00;;;;;14.23;83.71;101095.25;6237351;22;45062;-84
2023/11/16 01:03:24;;;;;;;;;11.33;11.33;;;;;14.19;83.71;101088.09;6213183;22;44880;-84
2023/11/16 01:05:50;;;;;;;;;12.33;12.33;;;;;14.14;83.94;101077.38;6239416;22;45008;-83
2023/11/16 01:08:16;;;;;;;;;11.33;9.67;;;;;14.18;83.81;101080.97;6239287;22;44787;-84
2023/11/16 01:10:43;;;;;;;;;10.00;10.00;;;;;14.16;83.96;101089.00;6212772;22;44784;-83
2023/11/16 01:13:11;;;;;;;;;10.00;10.00;;;;;14.29;84.28;101073.00;6213186;22;44845;-84
2023/11/16 01:15:38;;;;;;;;;14.00;12.33;;;;;14.18;84.31;101076.50;6212534;22;47047;-83
2023/11/16 01:18:12;;;;;;;;;12.67;11.00;;;;;14.27;84.50;101077.44;6213049;22;44878;-83
2023/11/16 01:20:38;;;;;;;;;8.33;8.33;;;;;14.03;84.61;101076.44;6239028;22;44892;-84
2023/11/16 01:23:12;;;;;;;;;11.67;11.67;;;;;13.97;84.86;101076.41;6237617;22;44784;-84
2023/11/16 01:25:41;;;;;;;;;11.00;11.00;;;;;14.01;85.03;101071.06;6240692;22;45138;-84
2023/11/16 01:28:08;;;;;;;;;14.33;13.00;;;;;13.97;85.27;101058.56;6213827;22;44945;-83
2023/11/16 01:30:33;;;;;;;;;13.33;11.00;;;;;13.91;85.46;101060.31;6213496;22;44900;-84
2023/11/16 01:32:59;;;;;;;;;13.33;13.00;;;;;13.80;85.54;101050.47;6238783;22;44891;-84
2023/11/16 01:35:25;;;;;;;;;11.00;10.67;;;;;13.79;85.89;101040.66;6211942;22;47086;-84
2023/11/16 01:37:52;;;;;;;;;10.67;10.00;;;;;13.86;86.13;101049.59;6213025;22;44836;-83
2023/11/16 01:40:18;;;;;;;;;14.00;10.67;;;;;13.78;86.34;101037.97;6213918;22;44721;-84
2023/11/16 01:42:44;;;;;;;;;14.00;11.00;;;;;13.69;86.35;101033.47;6214315;22;44934;-84
2023/11/16 01:45:33;;;;;;;;;11.67;9.00;;;;;14.04;86.40;101045.22;6213834;22;47573;-84
2023/11/16 01:48:02;;;;;;;;;14.33;12.00;;;;;13.84;86.86;101043.34;6240294;22;44836;-83
2023/11/16 01:50:33;;;;;;;;;13.00;10.67;;;;;13.92;86.63;101048.75;6214317;22;44723;-83
2023/11/16 01:53:06;;;;;;;;;13.33;10.00;;;;;13.84;87.04;101032.66;6238344;22;44891;-84
2023/11/16 01:55:33;;;;;;;;;13.33;10.00;;;;;13.72;86.86;101025.47;6237567;22;44946;-83
2023/11/16 01:58:07;;;;;;;;;8.67;8.67;;;;;13.75;87.08;101028.13;6239872;22;44753;-84
2023/11/16 02:00:33;;;;;;;;;15.00;11.67;;;;;13.63;87.28;101022.72;6213034;22;44762;-84
2023/11/16 02:03:03;;;;;;;;;10.00;9.67;;;;;13.81;87.33;101032.63;6213701;22;44718;-83
2023/11/16 02:05:34;;;;;;;;;11.00;9.00;;;;;13.84;87.10;101026.44;6213151;22;47146;-83
2023/11/16 02:08:08;;;;;;;;;15.33;12.00;;;;;13.86;87.39;101028.22;6239894;22;44886;-84
2023/11/16 02:10:34;;;;;;;;;10.00;10.00;;;;;13.74;87.34;101034.38;6240212;22;44717;-84
2023/11/16 02:13:00;;;;;;;;;10.00;10.00;;;;;13.76;87.29;101034.41;6213604;22;44923;-84
2023/11/16 02:15:29;;;;;;;;;10.00;9.00;;;;;13.82;87.18;101028.22;6213323;22;47077;-83
2023/11/16 02:17:56;;;;;;;;;11.00;11.00;;;;;13.93;87.31;101021.13;6239633;22;44828;-83
2023/11/16 02:20:25;;;;;;;;;11.33;9.67;;;;;13.77;86.89;101017.47;6240187;22;44807;-84
2023/11/16 02:22:52;;;;;;;;;10.33;9.67;;;;;13.97;87.03;101020.25;6214096;22;44897;-83
2023/11/16 02:25:18;;;;;;;;;13.00;10.00;;;;;13.83;87.22;101013.94;6239790;22;45409;-83
2023/11/16 02:27:44;;;;;;;;;12.00;10.33;;;;;13.86;87.09;101013.97;6213457;22;44781;-83
2023/11/16 02:30:09;;;;;;;;;11.00;11.00;;;;;13.90;86.92;101007.75;6240545;22;45266;-84
2023/11/16 02:32:35;;;;;;;;;9.00;9.00;;;;;13.86;86.87;101008.63;6238467;22;44756;-83
2023/11/16 02:35:02;;;;;;;;;13.33;13.33;;;;;13.88;86.79;101001.50;6239245;22;44945;-83
2023/11/16 02:37:27;;;;;;;;;14.33;14.00;;;;;13.86;87.02;100987.22;6213389;22;44882;-83
2023/11/16 02:39:53;;;;;;;;;11.00;11.00;;;;;13.89;86.85;100992.56;6213791;22;44790;-83
2023/11/16 02:42:19;;;;;;;;;10.00;10.00;;;;;13.89;86.99;100997.94;6213906;22;44825;-84
2023/11/16 02:44:47;;;;;;;;;13.33;13.33;;;;;13.86;86.85;100976.53;6238618;22;45155;-84
2023/11/16 02:47:13;;;;;;;;;16.00;14.67;;;;;13.87;87.06;100973.84;6213645;22;44976;-84
2023/11/16 02:49:38;;;;;;;;;15.00;14.67;;;;;13.78;87.04;100966.69;6213535;22;44869;-84
2023/11/16 02:52:04;;;;;;;;;18.00;16.33;;;;;13.84;87.26;100971.19;6240150;22;44767;-85
2023/11/16 02:54:30;;;;;;;;;15.67;15.00;;;;;13.80;87.34;100950.66;6237694;22;45251;-82
2023/11/16 02:56:56;;;;;;;;;12.00;11.00;;;;;13.84;87.48;100976.53;6213527;22;44785;-85
2023/11/16 02:59:22;;;;;;;;;14.67;14.67;;;;;13.83;87.35;100969.38;6213014;22;44741;-84
2023/11/16 03:01:47;;;;;;;;;17.00;15.00;;;;;13.83;87.50;100961.34;6213892;22;44757;-85
2023/11/16 03:04:12;;;;;;;;;10.67;10.67;;;;;13.84;87.56;100960.47;6213317;22;55823;-83
2023/11/16 03:06:38;;;;;;;;;16.00;14.67;;;;;13.85;87.63;100958.69;6213497;22;45000;-84
2023/11/16 03:09:05;;;;;;;;;11.33;11.33;;;;;13.97;87.63;100953.41;6214149;22;45252;-83
2023/11/16 03:11:35;;;;;;;;;10.67;10.67;;;;;13.87;87.51;100947.13;6237975;22;44693;-84
2023/11/16 03:14:01;;;;;;;;;14.00;11.00;;;;;13.78;87.61;100931.94;6212906;22;47494;-83
2023/11/16 03:16:26;;;;;;;;;11.00;11.00;;;;;13.76;87.66;100922.13;6238794;22;44738;-83
2023/11/16 03:18:52;;;;;;;;;11.00;10.00;;;;;13.67;87.72;100906.94;6240124;22;44938;-84
2023/11/16 03:21:18;;;;;;;;;9.67;9.67;;;;;13.74;88.02;100915.91;6213421;22;45147;-83
2023/11/16 03:23:45;;;;;;;;;10.67;10.67;;;;;13.84;88.59;100914.16;6212747;22;46986;-83
2023/11/16 03:31:55;;;;;;;;;10.00;9.33;;;;;13.65;88.99;100894.47;6164034;22;46448;-83
2023/11/16 03:34:20;;;;;;;;;11.67;10.00;;;;;13.66;88.93;100894.47;6248719;22;47206;-82
2023/11/16 03:36:46;;;;;;;;;13.67;12.33;;;;;13.67;89.03;100880.22;6224510;22;45266;-83
2023/11/16 03:39:12;;;;;;;;;12.67;11.33;;;;;13.69;88.68;100882.91;6223709;22;44840;-82
2023/11/16 03:41:38;;;;;;;;;13.00;9.00;;;;;13.65;89.22;100876.63;6224053;22;45212;-82
2023/11/16 03:44:04;;;;;;;;;15.00;15.00;;;;;13.63;89.21;100866.84;6251439;22;45111;-83
2023/11/16 03:46:29;;;;;;;;;12.00;12.00;;;;;13.64;89.15;100857.94;6249456;22;45383;-82
2023/11/16 03:48:54;;;;;;;;;17.00;16.00;;;;;13.64;89.36;100857.94;6224079;22;45547;-83
2023/11/16 03:51:20;;;;;;;;;14.00;12.33;;;;;13.63;89.44;100845.47;6224398;22;44808;-82
2023/11/16 03:53:45;;;;;;;;;12.33;11.67;;;;;13.64;89.21;100847.25;6223682;22;47606;-82
2023/11/16 03:56:10;;;;;;;;;15.00;14.00;;;;;13.65;89.46;100833.88;6252114;22;45356;-83
2023/11/16 03:58:36;;;;;;;;;13.00;13.00;;;;;13.60;89.36;100833.00;6225626;22;44822;-82
2023/11/16 04:01:02;;;;;;;;;12.00;12.00;;;;;13.63;89.66;100830.31;6251067;22;44956;-82
2023/11/16 04:03:29;;;;;;;;;15.33;15.00;;;;;13.79;89.74;100836.59;6222383;22;47458;-83
2023/11/16 04:05:55;;;;;;;;;11.00;9.00;;;;;13.71;89.35;100833.00;6220919;22;45430;-83
2023/11/16 04:08:20;;;;;;;;;9.67;9.00;;;;;13.71;89.43;100833.91;6224482;22;44911;-84
2023/11/16 04:10:45;;;;;;;;;15.33;13.33;;;;;13.71;89.55;100839.25;6251844;22;44839;-83
2023/11/16 04:13:11;;;;;;;;;13.00;12.00;;;;;13.72;89.32;100841.03;6249057;22;45235;-83
2023/11/16 04:15:37;;;;;;;;;12.33;12.33;;;;;13.69;89.52;100819.63;6222030;22;45171;-83
2023/11/16 04:18:03;;;;;;;;;12.67;12.67;;;;;13.69;89.73;100819.63;6223525;22;44804;-84
2023/11/16 04:20:29;;;;;;;;;18.00;16.33;;;;;13.60;89.78;100803.59;6253255;22;45291;-83
2023/11/16 04:22:55;;;;;;;;;12.67;10.00;;;;;13.58;89.97;100797.34;6251793;22;45299;-83
2023/11/16 04:25:27;;;;;;;;;17.00;16.00;;;;;13.63;90.21;100790.22;6226808;22;44752;-83
2023/11/16 04:27:59;;;;;;;;;15.00;13.33;;;;;13.60;90.19;100776.88;6227194;22;44922;-83
2023/11/16 04:30:28;;;;;;;;;16.33;16.00;;;;;13.71;90.65;100769.75;6251718;22;44941;-82
2023/11/16 04:32:57;;;;;;;;;16.00;16.00;;;;;13.72;90.25;100770.66;6251605;22;47156;-82
2023/11/16 04:35:23;;;;;;;;;14.67;14.67;;;;;13.56;90.54;100780.44;6252486;22;45031;-83
2023/11/16 04:37:49;;;;;;;;;18.33;12.33;;;;;13.48;90.56;100767.03;6226006;22;44933;-83
2023/11/16 04:40:15;;;;;;;;;14.33;13.00;;;;;13.45;90.82;100767.00;6250071;22;44902;-83
2023/11/16 04:42:44;;;;;;;;;13.33;11.67;;;;;13.51;91.29;100766.16;6222178;22;45437;-83
2023/11/16 04:45:18;;;;;;;;;14.00;14.00;;;;;13.64;91.00;100759.94;6197034;22;45031;-83
2023/11/16 04:47:45;;;;;;;;;14.67;13.00;;;;;13.46;91.46;100738.53;6222495;22;45250;-83
2023/11/16 04:50:13;;;;;;;;;11.67;9.00;;;;;13.45;91.20;100721.59;6248088;22;45260;-82
2023/11/16 07:15:37;;;;;;;;;10.33;10.33;;;;;13.26;100.00;100261.28;6168868;22;46445;-88
2023/11/16 07:18:04;;;;;;;;;14.33;13.00;;;;;13.00;100.00;100243.59;6260331;22;47078;-88
2023/11/16 07:20:35;;;;;;;;;8.67;8.67;;;;;12.89;100.00;100213.41;6257382;22;45140;-89
2023/11/16 07:23:03;;;;;;;;;13.67;12.67;;;;;13.05;100.00;100226.66;6263312;22;44803;-90
2023/11/16 07:25:28;;;;;;;;;14.00;13.00;;;;;12.97;100.00;100192.03;6236364;22;44878;-88
2023/11/16 07:27:54;;;;;;;;;11.33;11.33;;;;;12.89;100.00;100162.69;6236233;22;47018;-89
2023/11/16 07:30:21;;;;;;;;;13.33;12.33;;;;;12.88;100.00;100155.56;6261357;22;45177;-87
2023/11/16 07:32:51;;;;;;;;;13.00;10.67;;;;;13.08;100.00;100181.28;6267067;22;44867;-88
2023/11/16 07:38:12;;;;;;;;;12.00;12.00;;;;;13.08;100.00;100146.59;6200132;22;45602;-87
2023/11/16 07:40:57;;;;;;;;;8.67;8.00;;;;;13.09;100.00;100151.00;6204109;22;44917;-87
2023/11/16 07:54:57;;;;;;;;;7.00;7.00;;;;;13.31;100.00;100176.75;6233297;22;46311;-87
2023/11/16 08:06:43;;;;;;;;;8.33;7.67;;;;;13.57;100.00;100210.41;6189429;22;45731;-87
2023/11/16 08:09:09;;;;;;;;;9.33;9.00;;;;;13.25;100.00;100184.78;6242684;22;44785;-87
2023/11/16 08:14:12;;;;;;;;;9.00;6.67;;;;;13.13;100.00;100172.38;6171841;22;46522;-86
2023/11/16 08:16:39;;;;;;;;;11.00;7.00;;;;;13.20;100.00;100159.88;6215088;22;44919;-87
2023/11/16 08:19:06;;;;;;;;;8.67;7.00;;;;;13.06;100.00;100143.91;6267898;22;44921;-88
2023/11/16 08:26:48;;;;;;;;;8.00;8.00;;;;;13.21;100.00;100140.28;6159056;22;46279;-87
2023/11/16 08:29:14;;;;;;;;;7.00;5.67;;;;;13.19;100.00;100118.06;6248111;22;46487;-88
2023/11/16 08:39:27;;;;;;;;;6.67;6.33;;;;;13.23;100.00;100113.56;6235574;22;44854;-86
2023/11/16 08:41:52;;;;;;;;;7.33;6.33;;;;;13.16;100.00;100131.41;6204890;22;45374;-87
2023/11/16 08:44:19;;;;;;;;;5.33;3.00;;;;;13.13;100.00;100118.09;6205987;22;44821;-86
2023/11/16 08:46:46;;;;;;;;;4.00;3.00;;;;;12.98;100.00;100095.91;6236075;22;44827;-87
2023/11/16 09:38:24;;;;;;;;;2.33;2.00;;;;;12.61;100.00;99879.16;6138532;22;46047;-80
2023/11/16 10:41:24;;;;;;;;;3.00;1.00;;;;;17.19;98.82;99653.66;6250790;22;46147;-86
2023/11/16 10:44:13;;;;;;;;;3.00;2.00;;;;;17.07;100.00;99632.53;6248034;22;44812;-82
2023/11/16 10:50:04;;;;;;;;;2.67;2.33;;;;;16.97;95.84;99617.63;6198674;22;45722;-82
2023/11/16 10:52:37;;;;;;;;;3.67;3.33;;;;;16.62;97.66;99607.88;6145891;23;45421;-85
2023/11/16 10:55:16;;;;;;;;;3.00;3.00;;;;;16.62;100.00;99589.94;6172042;23;44817;-83
2023/11/16 10:57:48;;;;;;;;;5.33;3.00;;;;;16.45;97.59;99598.50;6148460;23;44817;-84
2023/11/16 11:00:20;;;;;;;;;3.33;3.00;;;;;16.33;99.02;99588.13;6175831;23;45039;-82
2023/11/16 11:02:59;;;;;;;;;4.67;4.67;;;;;16.08;99.18;99566.44;6152115;23;47152;-84
2023/11/16 11:08:44;;;;;;;;;1.00;1.00;;;;;16.92;100.00;99539.84;6222043;22;46811;-84
2023/11/16 11:13:45;;;;;;;;;3.00;3.00;;;;;16.44;100.00;99500.16;6266777;22;45047;-83
2023/11/16 11:18:51;;;;;;;;;2.00;2.00;;;;;16.10;100.00;99479.66;6239872;22;44965;-82
2023/11/16 11:21:30;;;;;;;;;3.00;3.00;;;;;15.96;100.00;99497.97;6245168;22;44770;-85
2023/11/16 11:24:08;;;;;;;;;2.67;2.67;;;;;16.00;100.00;99484.41;6270858;22;46617;-84
2023/11/16 11:26:37;;;;;;;;;6.00;4.00;;;;;15.89;100.00;99469.53;6254632;22;44976;-83
2023/11/16 11:34:39;;;;;;;;;6.67;6.67;;;;;15.64;100.00;99502.34;6288534;22;46135;-85
2023/11/16 11:37:10;;;;;;;;;3.67;3.67;;;;;15.57;100.00;99507.00;6166036;22;45649;-83
2023/11/16 11:39:49;;;;;;;;;4.67;3.67;;;;;15.43;100.00;99444.88;6224324;22;44843;-85
2023/11/16 12:03:10;;;;;;;;;2.75;2.00;;;;;15.76;100.00;99442.22;6267539;22;44867;-84
2023/11/16 12:05:37;;;;;;;;;6.33;5.00;;;;;15.49;100.00;99455.41;6223063;22;46206;-85
2023/11/16 12:08:41;;;;;;;;;8.00;8.00;;;;;15.86;100.00;99426.75;6266298;22;44691;-85
2023/11/16 12:11:12;;;;;;;;;4.67;4.33;;;;;15.64;100.00;99427.31;6236946;22;44996;-85
2023/11/16 12:13:54;;;;;;;;;7.33;4.67;;;;;15.65;100.00;99422.81;6262287;22;44840;-87
2023/11/16 12:16:25;;;;;;;;;6.67;4.67;;;;;15.84;100.00;99423.22;6238922;22;45865;-84
2023/11/16 12:26:41;;;;;;;;;9.00;8.00;;;;;15.76;100.00;99436.84;6220152;22;46891;-83
2023/11/16 12:31:45;;;;;;;;;9.00;9.00;;;;;15.72;100.00;99438.72;6225793;22;46060;-85
2023/11/16 12:34:14;;;;;;;;;10.33;9.67;;;;;15.99;100.00;99430.81;6235692;22;45518;-84
2023/11/16 12:41:49;;;;;;;;;8.33;8.00;;;;;15.42;100.00;99405.59;6137529;22;46766;-83
2023/11/16 12:44:22;;;;;;;;;8.00;8.00;;;;;15.81;100.00;99416.13;6232772;22;44829;-83
2023/11/16 12:46:48;;;;;;;;;8.00;8.00;;;;;15.61;100.00;99397.91;6230327;22;47409;-81
2023/11/16 12:49:14;;;;;;;;;7.00;7.00;;;;;15.74;100.00;99422.59;6268740;22;44724;-81
2023/11/16 12:54:15;;;;;;;;;11.67;11.00;;;;;15.94;100.00;99419.38;6232501;22;44977;-84
2023/11/16 12:56:50;;;;;;;;;9.33;8.67;;;;;16.01;100.00;99437.00;6230287;22;47267;-84
2023/11/16 12:59:16;;;;;;;;;11.00;10.00;;;;;16.03;100.00;99451.25;6228517;22;45319;-84
2023/11/16 13:01:42;;;;;;;;;12.00;11.00;;;;;16.09;100.00;99451.06;6231939;22;45063;-84
2023/11/16 13:04:11;;;;;;;;;9.33;9.33;;;;;15.72;100.00;99411.91;6231903;22;44753;-83
2023/11/16 13:10:02;;;;;;;;;9.00;8.00;;;;;15.83;100.00;99405.38;6197350;22;44884;-85
2023/11/16 13:12:28;;;;;;;;;4.00;4.00;;;;;15.97;100.00;99440.69;6166878;23;44877;-82
2023/11/16 13:14:53;;;;;;;;;6.33;6.33;;;;;15.82;100.00;99425.06;6193502;23;45498;-84
2023/11/16 13:17:19;;;;;;;;;9.33;9.33;;;;;15.84;100.00;99431.28;6172838;23;47549;-84
2023/11/16 13:19:44;;;;;;;;;7.67;6.33;;;;;15.73;100.00;99432.44;6144639;23;45016;-83
2023/11/16 13:22:10;;;;;;;;;5.67;5.00;;;;;15.79;100.00;99426.03;6170727;23;44703;-83
2023/11/16 13:24:41;;;;;;;;;4.00;4.00;;;;;16.38;100.00;99452.00;6173157;22;45418;-83
2023/11/16 13:27:23;;;;;;;;;2.67;2.67;;;;;16.06;100.00;99418.09;6200397;22;45259;-82
2023/11/16 13:29:48;;;;;;;;;8.33;7.67;;;;;16.11;100.00;99443.00;6177165;22;44819;-82
2023/11/16 13:32:19;;;;;;;;;7.00;7.00;;;;;17.34;100.00;99450.72;6170932;23;45447;-83
2023/11/16 13:34:51;;;;;;;;;9.00;8.33;;;;;17.10;100.00;99444.38;6173814;22;44855;-85
2023/11/16 13:39:57;;;;;;;;;9.00;9.00;;;;;17.18;100.00;99461.09;6282810;22;44946;-83
2023/11/16 13:42:26;;;;;;;;;7.00;7.00;;;;;17.02;100.00;99469.75;6295242;22;45017;-83
2023/11/16 13:44:55;;;;;;;;;11.00;10.00;;;;;16.80;100.00;99449.81;6288191;22;44783;-81
2023/11/16 13:47:22;;;;;;;;;8.00;7.33;;;;;16.46;100.00;99467.88;6265707;22;47052;-83
2023/11/16 13:49:48;;;;;;;;;9.00;9.00;;;;;16.30;100.00;99464.78;6241415;22;44866;-81
2023/11/16 13:52:13;;;;;;;;;9.67;9.67;;;;;16.23;100.00;99442.63;6265069;22;44926;-82
2023/11/16 13:54:44;;;;;;;;;11.33;10.67;;;;;16.49;100.00;99465.13;6264982;22;45041;-83
2023/11/16 14:00:34;;;;;;;;;10.00;9.00;;;;;16.60;100.00;99498.75;6294041;22;44841;-82
2023/11/16 14:03:01;;;;;;;;;10.67;10.67;;;;;16.52;100.00;99503.47;6266530;22;44758;-82
2023/11/16 14:05:37;;;;;;;;;9.00;9.00;;;;;16.78;100.00;99517.88;6291898;22;45223;-82
2023/11/16 14:08:05;;;;;;;;;10.00;8.00;;;;;16.74;100.00;99490.28;6291783;22;45334;-82
2023/11/16 14:10:55;;;;;;;;;5.00;5.00;;;;;17.04;100.00;99511.72;6264408;22;44778;-84
2023/11/16 15:06:32;;;;;;;;;5.75;5.75;;;;;16.20;100.00;99555.41;6201714;22;44796;-83
2023/11/16 15:09:04;;;;;;;;;5.67;5.67;;;;;16.36;100.00;99542.41;6178707;22;46402;-84
2023/11/16 15:16:45;;;;;;;;;4.25;4.25;;;;;16.24;100.00;99543.66;6259434;22;45279;-85
2023/11/16 15:19:14;;;;;;;;;6.33;6.33;;;;;16.22;100.00;99555.34;6239313;22;44697;-84
2023/11/16 15:21:45;;;;;;;;;5.33;3.67;;;;;16.31;100.00;99622.16;6212550;22;46018;-84
2023/11/16 15:24:12;;;;;;;;;5.00;5.00;;;;;15.97;100.00;99628.41;6266561;22;46979;-85
2023/11/16 15:52:46;;;;;;;;;3.50;3.00;;;;;15.43;100.00;99731.53;6138096;22;46544;31
2023/11/16 16:04:28;;;;;;;;;3.00;3.00;;;;;15.29;100.00;99757.72;6222348;22;45963;-82
2023/11/16 16:06:53;;;;;;;;;4.33;4.33;;;;;14.96;100.00;99789.63;6241787;22;45019;-85
2023/11/16 16:09:19;;;;;;;;;3.00;3.00;;;;;14.98;100.00;99807.44;6242261;22;44801;-85
2023/11/16 16:11:44;;;;;;;;;4.67;4.00;;;;;14.99;100.00;99813.69;6201608;22;46929;-85
2023/11/16 16:14:16;;;;;;;;;4.00;2.67;;;;;14.91;100.00;99816.50;6177034;22;45096;-84
2023/11/16 16:20:21;;;;;;;;;7.33;5.33;;;;;15.32;100.00;99881.78;6196586;22;46679;31
2023/11/16 16:23:07;;;;;;;;;2.33;2.00;;;;;15.19;100.00;99888.31;6203822;22;46061;-85
2023/11/16 16:25:34;;;;;;;;;3.33;3.33;;;;;14.74;100.00;99899.75;6177009;22;46641;-86
2023/11/16 16:44:38;;;;;;;;;1.00;1.00;;;;;14.68;100.00;100011.38;6163180;22;46629;-83
2023/11/16 16:47:06;;;;;;;;;0.00;0.00;;;;;14.29;100.00;100013.69;6125184;22;47256;-83
2023/11/16 16:59:53;;;;;;;;;2.33;1.33;;;;;14.37;100.00;100124.13;6299918;22;44710;-86
2023/11/16 17:44:41;;;;;;;;;3.00;1.00;;;;;14.21;100.00;100370.34;6133123;22;46646;-84
2023/11/16 18:02:41;;;;;;;;;0.00;0.00;;;;;14.10;100.00;100455.13;6179538;22;46648;-85
2023/11/16 18:05:09;;;;;;;;;2.00;2.00;;;;;13.91;100.00;100440.06;6267806;22;47266;-84
2023/11/16 18:07:47;;;;;;;;;2.00;2.00;;;;;13.84;100.00;100454.38;6263609;22;44823;-84
2023/11/16 18:21:10;;;;;;;;;4.00;4.00;;;;;14.06;100.00;100489.88;6128979;22;46313;-84
2023/11/16 18:26:11;;;;;;;;;8.00;6.00;;;;;13.94;100.00;100518.47;6243324;22;45154;-85
2023/11/16 18:28:38;;;;;;;;;5.67;4.00;;;;;14.19;100.00;100548.66;6270183;22;44753;-84
2023/11/16 18:31:04;;;;;;;;;7.33;7.00;;;;;13.99;100.00;100534.50;6243347;22;44694;-85
2023/11/16 18:36:07;;;;;;;;;7.00;7.00;;;;;14.26;100.00;100554.00;6194926;22;45212;-85
2023/11/16 18:41:26;;;;;;;;;6.00;6.00;;;;;14.41;100.00;100594.06;6247326;22;45204;-85
2023/11/16 18:43:51;;;;;;;;;9.67;8.33;;;;;14.05;100.00;100619.16;6270577;22;44749;-85
2023/11/16 18:46:18;;;;;;;;;7.00;7.00;;;;;13.98;100.00;100611.16;6271032;22;45264;-85
2023/11/16 18:48:51;;;;;;;;;7.00;7.00;;;;;14.37;100.00;100621.75;6220362;22;45325;-84
2023/11/16 18:51:16;;;;;;;;;6.33;6.00;;;;;14.00;100.00;100627.19;6269679;22;44840;-84
2023/11/16 18:53:42;;;;;;;;;4.67;4.67;;;;;13.90;100.00;100620.97;6269537;22;44882;-84
2023/11/16 18:56:14;;;;;;;;;4.33;4.33;;;;;13.98;98.37;100655.72;6278386;22;45396;-85
2023/11/16 18:58:40;;;;;;;;;8.33;6.33;;;;;13.88;100.00;100659.28;6301607;22;44830;-86
2023/11/16 19:01:08;;;;;;;;;8.00;6.00;;;;;13.85;100.00;100672.66;6273718;22;45423;-86
2023/11/16 19:03:33;;;;;;;;;7.67;6.33;;;;;13.84;100.00;100682.47;6300949;22;44867;-86
2023/11/16 19:06:00;;;;;;;;;4.00;3.00;;;;;13.80;100.00;100668.19;6274001;22;47071;-85
2023/11/16 19:08:25;;;;;;;;;9.00;7.33;;;;;13.76;100.00;100676.22;6298517;22;44703;-86
2023/11/16 19:10:51;;;;;;;;;7.67;7.00;;;;;13.85;100.00;100696.72;6300526;22;45024;-85
2023/11/16 19:13:17;;;;;;;;;7.00;7.00;;;;;13.90;100.00;100713.66;6299812;22;44804;-85
2023/11/16 19:15:44;;;;;;;;;4.67;4.67;;;;;13.83;94.89;100725.22;6300432;22;45507;-85
2023/11/16 19:18:10;;;;;;;;;9.00;7.00;;;;;13.83;100.00;100723.44;6300333;22;44935;-86
2023/11/16 19:20:38;;;;;;;;;6.33;6.33;;;;;14.10;100.00;100740.34;6251953;22;45269;-85
2023/11/16 19:23:08;;;;;;;;;7.33;6.00;;;;;13.91;100.00;100739.47;6267402;22;44778;-85
2023/11/16 19:25:36;;;;;;;;;7.00;7.00;;;;;13.65;100.00;100737.66;6269799;22;45100;-85
2023/11/16 19:28:02;;;;;;;;;6.00;4.67;;;;;13.71;100.00;100752.81;6243291;22;44812;-85
2023/11/16 19:30:28;;;;;;;;;6.00;6.00;;;;;13.62;100.00;100743.03;6270189;22;44799;-85
2023/11/16 19:32:54;;;;;;;;;8.67;7.67;;;;;13.75;100.00;100768.88;6271007;22;44736;-86
2023/11/16 19:35:20;;;;;;;;;8.33;6.33;;;;;13.71;100.00;100775.09;6267743;22;47094;-85
2023/11/16 19:37:49;;;;;;;;;7.67;6.00;;;;;13.79;100.00;100784.06;6269816;22;44737;-84
2023/11/16 19:42:51;;;;;;;;;3.33;3.00;;;;;13.88;96.67;100801.00;6239525;22;44978;-85
2023/11/16 19:45:17;;;;;;;;;8.00;8.00;;;;;13.76;99.37;100821.44;6212538;22;47124;-84
2023/11/16 19:47:43;;;;;;;;;6.67;6.67;;;;;13.66;94.36;100840.13;6212877;22;45039;-85
2023/11/16 19:50:11;;;;;;;;;5.67;5.33;;;;;13.47;96.94;100820.47;6212485;22;44784;-85
2023/11/16 19:52:38;;;;;;;;;7.00;4.00;;;;;13.67;100.00;100848.13;6240152;22;44943;-86
2023/11/16 19:55:06;;;;;;;;;7.00;6.00;;;;;13.93;100.00;100864.25;6137795;22;47299;-84
2023/11/16 19:57:33;;;;;;;;;4.00;4.00;;;;;13.52;100.00;100843.66;6231060;22;44894;-84
2023/11/16 20:00:04;;;;;;;;;6.33;6.33;;;;;13.73;100.00;100836.56;6268754;22;44780;-85
2023/11/16 20:02:34;;;;;;;;;7.67;7.33;;;;;13.56;96.20;100879.28;6242118;22;44883;-84
2023/11/16 20:04:59;;;;;;;;;8.00;7.00;;;;;13.63;100.00;100870.41;6241937;22;47100;-85
2023/11/16 20:07:28;;;;;;;;;8.00;7.00;;;;;13.59;100.00;100865.94;6241954;22;44816;-85
2023/11/16 20:09:55;;;;;;;;;7.67;7.67;;;;;13.68;100.00;100903.38;6242600;22;44724;-85
2023/11/16 20:12:20;;;;;;;;;8.00;8.00;;;;;13.68;100.00;100903.38;6266621;22;44745;-85
2023/11/16 20:14:51;;;;;;;;;8.33;8.00;;;;;13.52;100.00;100885.50;6242050;22;47126;-85
2023/11/16 20:17:17;;;;;;;;;7.33;7.33;;;;;13.45;100.00;100889.03;6225803;22;44779;-84
2023/11/16 20:19:43;;;;;;;;;7.33;6.00;;;;;13.47;98.61;100895.28;6241799;22;44801;-84
2023/11/16 20:22:19;;;;;;;;;7.00;7.00;;;;;13.76;99.12;100909.66;6241797;22;45243;-84
2023/11/16 20:24:58;;;;;;;;;8.33;7.67;;;;;13.72;99.33;100925.69;6242164;22;47006;-84
2023/11/16 20:27:26;;;;;;;;;4.00;4.00;;;;;13.50;100.00;100924.69;6241790;22;45025;-84
2023/11/16 20:29:56;;;;;;;;;7.00;4.67;;;;;13.65;100.00;100939.91;6225783;22;45053;-84
2023/11/16 20:32:21;;;;;;;;;6.67;6.67;;;;;13.44;98.01;100930.00;6238251;22;45030;-85
2023/11/16 20:34:47;;;;;;;;;10.67;7.67;;;;;13.59;100.00;100948.78;6238510;22;45180;-84
2023/11/16 20:37:14;;;;;;;;;6.33;6.33;;;;;13.52;100.00;100944.28;6239523;22;44819;-83
2023/11/16 20:39:39;;;;;;;;;6.00;6.00;;;;;13.34;100.00;100916.59;6267624;22;44918;-84
2023/11/16 20:42:06;;;;;;;;;8.00;8.00;;;;;13.58;100.00;100961.25;6269119;22;44736;-84
2023/11/16 20:44:39;;;;;;;;;8.00;6.00;;;;;13.87;100.00;100967.63;6266378;22;45176;-84
2023/11/16 20:47:21;;;;;;;;;4.67;4.67;;;;;13.65;100.00;100927.41;6241394;22;44844;-85
2023/11/16 20:49:49;;;;;;;;;7.00;7.00;;;;;13.66;100.00;100947.94;6266239;22;44985;-85
2023/11/16 20:52:18;;;;;;;;;4.00;4.00;;;;;13.42;100.00;100959.38;6238173;22;44881;-84
2023/11/16 20:54:43;;;;;;;;;8.67;6.00;;;;;13.56;96.75;101007.56;6265757;22;45443;-84
2023/11/16 20:57:11;;;;;;;;;7.33;7.33;;;;;13.85;100.00;100997.00;6238295;22;44725;-88
2023/11/16 20:59:55;;;;;;;;;;;;;;;;;;;;;
2023/11/16 21:02:23;;;;;;;;;7.33;6.67;;;;;13.58;100.00;100987.97;6250448;22;65083;-88
2023/11/16 21:08:26;;;;;;;;;;;;;;;;;;;;;
2023/11/16 21:11:04;;;;;;;;;4.00;4.00;;;;;13.77;100.00;100983.59;6249401;22;68887;-88
2023/11/16 21:13:30;;;;;;;;;11.67;7.33;;;;;13.65;100.00;101001.38;6223386;22;44842;-87
2023/11/16 21:15:55;;;;;;;;;3.00;3.00;;;;;13.53;100.00;100984.41;6223343;22;46815;-89
2023/11/16 21:19:12;;;;;;;;;6.33;6.00;;;;;14.27;100.00;101046.22;6222289;22;45249;-88
2023/11/16 21:21:38;;;;;;;;;6.00;6.00;;;;;14.10;100.00;101040.81;6248010;22;45348;-88
2023/11/16 21:24:06;;;;;;;;;4.33;4.33;;;;;14.17;100.00;101045.28;6223830;22;44994;-89
2023/11/16 21:26:35;;;;;;;;;9.00;8.33;;;;;14.30;100.00;101045.34;6223661;22;45371;-89
2023/11/16 21:29:01;;;;;;;;;8.33;8.33;;;;;14.11;100.00;101057.75;6250103;22;45304;-88